createdAt,value
2018-09-21T00:00:47.597Z,6.63
2018-09-21T00:03:20.112Z,11.33
2018-09-21T00:05:53.372Z,6.23
2018-09-21T00:08:26.174Z,12.97
2018-09-21T00:10:59.097Z,12.30
2018-09-21T00:17:02.622Z,19.03
2018-09-21T00:22:56.572Z,9.00
2018-09-21T00:25:30.233Z,10.13
2018-09-21T00:28:02.615Z,9.07
2018-09-21T00:30:36.092Z,8.83
2018-09-21T00:33:10.711Z,8.47
2018-09-21T00:35:45.109Z,8.73
2018-09-21T00:38:19.375Z,11.40
2018-09-21T00:40:53.317Z,10.57
2018-09-21T00:43:27.011Z,11.50
2018-09-21T00:46:01.939Z,16.67
2018-09-21T00:48:35.457Z,13.87
2018-09-21T00:54:38.910Z,8.47
2018-09-21T00:57:12.571Z,9.10
2018-09-21T00:59:45.837Z,9.67
2018-09-21T01:02:19.014Z,8.80
2018-09-21T01:04:51.702Z,10.67
2018-09-21T01:07:26.688Z,8.97
2018-09-21T01:09:59.386Z,9.60
2018-09-21T01:12:33.565Z,10.13
2018-09-21T01:15:06.609Z,17.87
2018-09-21T01:17:46.164Z,9.53
2018-09-21T01:20:43.910Z,13.07
2018-09-21T01:23:17.227Z,14.03
2018-09-21T01:25:50.024Z,15.23
2018-09-21T01:28:22.415Z,13.17
2018-09-21T01:31:01.997Z,17.93
2018-09-21T01:33:37.053Z,11.73
2018-09-21T01:36:09.842Z,11.43
2018-09-21T01:38:43.752Z,11.53
2018-09-21T01:41:17.666Z,14.80
2018-09-21T01:43:53.909Z,14.80
2018-09-21T01:46:27.119Z,12.70
2018-09-21T01:49:00.357Z,16.10
2018-09-21T01:51:33.489Z,19.80
2018-09-21T01:54:05.922Z,19.77
2018-09-21T01:56:38.710Z,15.97
2018-09-21T01:59:11.439Z,11.00
2018-09-21T02:01:47.522Z,16.17
2018-09-21T02:04:21.260Z,8.53
2018-09-21T02:06:54.628Z,13.63
2018-09-21T02:09:27.403Z,10.90
2018-09-21T02:12:00.125Z,12.07
2018-09-21T02:14:32.673Z,11.17
2018-09-21T02:17:05.472Z,15.23
2018-09-21T02:19:39.217Z,10.80
2018-09-21T02:22:11.696Z,15.53
2018-09-21T02:24:44.725Z,13.00
2018-09-21T02:27:19.330Z,11.00
2018-09-21T02:29:52.106Z,11.73
2018-09-21T02:32:24.643Z,11.77
2018-09-21T02:34:58.172Z,11.73
2018-09-21T02:37:30.826Z,9.27
2018-09-21T02:40:05.641Z,12.43
2018-09-21T02:42:39.420Z,13.17
2018-09-21T02:45:13.376Z,11.23
2018-09-21T02:47:46.303Z,13.37
2018-09-21T02:50:19.606Z,4.70
2018-09-21T02:52:52.791Z,9.00
2018-09-21T02:58:48.536Z,4.93
2018-09-21T03:01:22.150Z,6.17
2018-09-21T03:03:54.595Z,6.47
2018-09-21T03:06:27.604Z,2.30
2018-09-21T03:09:01.135Z,5.40
2018-09-21T03:11:34.745Z,5.13
2018-09-21T03:14:10.067Z,6.60
2018-09-21T03:16:43.091Z,6.30
2018-09-21T03:19:15.702Z,4.03
2018-09-21T03:21:50.141Z,8.33
2018-09-21T03:24:22.807Z,2.03
2018-09-21T03:26:55.750Z,4.47
2018-09-21T03:29:28.715Z,4.53
2018-09-21T03:32:01.682Z,10.47
2018-09-21T03:34:35.278Z,6.87
2018-09-21T03:37:09.982Z,7.30
2018-09-21T03:39:43.630Z,4.53
2018-09-21T03:42:19.506Z,5.70
2018-09-21T03:44:52.170Z,4.70
2018-09-21T03:47:24.944Z,4.93
2018-09-21T03:49:57.657Z,5.40
2018-09-21T03:52:30.276Z,7.07
2018-09-21T03:55:03.370Z,4.47
2018-09-21T03:57:36.148Z,4.57
2018-09-21T04:00:12.962Z,5.20
2018-09-21T04:02:45.726Z,23.83
2018-09-21T04:05:18.928Z,7.80
2018-09-21T04:07:51.847Z,60.67
2018-09-21T04:10:28.676Z,74.50
2018-09-21T04:13:01.834Z,38.83
2018-09-21T04:15:35.135Z,17.83
2018-09-21T04:21:39.692Z,15.27
2018-09-21T04:24:12.547Z,9.83
2018-09-21T04:26:45.926Z,5.73
2018-09-21T04:29:18.362Z,5.93
2018-09-21T04:31:51.422Z,6.37
2018-09-21T04:34:24.803Z,4.47
2018-09-21T04:36:57.393Z,4.20
2018-09-21T04:39:30.136Z,3.10
2018-09-21T04:42:02.944Z,9.67
2018-09-21T04:44:35.556Z,53.43
2018-09-21T04:47:08.809Z,178.93
2018-09-21T04:53:13.095Z,139.87
2018-09-21T04:55:45.968Z,64.50
2018-09-21T04:58:19.105Z,21.43
2018-09-21T05:00:52.144Z,4.73
2018-09-21T05:03:25.752Z,3.33
2018-09-21T05:05:58.734Z,3.37
2018-09-21T05:11:52.757Z,5.03
2018-09-21T05:14:25.657Z,2.23
2018-09-21T05:16:58.620Z,3.23
2018-09-21T05:19:31.119Z,3.67
2018-09-21T05:22:04.094Z,2.47
2018-09-21T05:24:37.401Z,4.50
2018-09-21T05:30:32.082Z,4.17
2018-09-21T05:33:49.143Z,2.27
2018-09-21T05:36:22.246Z,3.73
2018-09-21T05:38:55.134Z,5.73
2018-09-21T05:44:16.911Z,18.10
2018-09-21T05:46:49.520Z,5.33
2018-09-21T05:52:43.947Z,4.33
2018-09-21T05:55:17.184Z,4.63
2018-09-21T05:57:50.090Z,5.97
2018-09-21T06:00:23.244Z,6.43
2018-09-21T06:02:56.316Z,4.10
2018-09-21T06:05:29.472Z,7.97
2018-09-21T06:08:02.695Z,5.90
2018-09-21T06:10:35.765Z,11.73
2018-09-21T06:13:08.811Z,23.60
2018-09-21T06:15:41.628Z,10.57
2018-09-21T06:18:14.409Z,9.43
2018-09-21T06:21:28.107Z,5.67
2018-09-21T06:24:03.479Z,4.10
2018-09-21T06:26:36.806Z,2.77
2018-09-21T06:29:10.311Z,3.53
2018-09-21T06:31:44.055Z,1.47
2018-09-21T06:34:17.240Z,1.93
2018-09-21T06:36:50.938Z,2.40
2018-09-21T06:39:24.361Z,1.40
2018-09-21T06:41:58.036Z,3.90
2018-09-21T06:47:53.309Z,1.50
2018-09-21T06:50:26.738Z,2.33
2018-09-21T06:53:00.131Z,2.30
2018-09-21T06:55:33.819Z,2.73
2018-09-21T06:58:07.723Z,4.87
2018-09-21T07:00:41.003Z,5.37
2018-09-21T07:03:14.522Z,2.70
2018-09-21T07:05:47.978Z,3.53
2018-09-21T07:08:21.874Z,4.03
2018-09-21T07:10:55.372Z,5.07
2018-09-21T07:13:29.162Z,1.90
2018-09-21T07:16:02.463Z,2.73
2018-09-21T07:18:37.437Z,3.07
2018-09-21T07:21:10.826Z,1.43
2018-09-21T07:23:45.414Z,4.17
2018-09-21T07:26:19.069Z,2.80
2018-09-21T07:28:52.682Z,1.60
2018-09-21T07:31:26.547Z,5.00
2018-09-21T07:34:00.024Z,3.27
2018-09-21T07:36:33.365Z,3.03
2018-09-21T07:39:08.619Z,2.23
2018-09-21T07:41:41.919Z,7.50
2018-09-21T07:44:15.112Z,7.30
2018-09-21T07:46:49.224Z,4.93
2018-09-21T07:49:22.587Z,12.73
2018-09-21T07:51:56.267Z,7.73
2018-09-21T07:54:29.696Z,10.80
2018-09-21T07:57:03.527Z,26.50
2018-09-21T07:59:36.940Z,46.57
2018-09-21T08:02:10.564Z,55.57
2018-09-21T08:04:43.759Z,80.57
2018-09-21T08:07:18.222Z,101.00
2018-09-21T08:09:51.829Z,99.77
2018-09-21T08:12:25.160Z,91.33
2018-09-21T08:18:29.287Z,5.93
2018-09-21T08:21:02.163Z,8.50
2018-09-21T08:23:35.147Z,8.17
2018-09-21T08:26:08.151Z,5.27
2018-09-21T08:28:43.392Z,5.00
2018-09-21T08:31:16.344Z,5.63
2018-09-21T08:33:49.306Z,5.10
2018-09-21T08:36:22.531Z,4.97
2018-09-21T08:38:55.585Z,7.17
2018-09-21T08:41:28.544Z,8.47
2018-09-21T08:44:06.613Z,6.77
2018-09-21T08:46:42.240Z,7.73
2018-09-21T08:49:19.007Z,6.60
2018-09-21T08:51:51.889Z,9.13
2018-09-21T08:54:24.804Z,12.67
2018-09-21T08:57:28.131Z,12.67
2018-09-21T09:00:00.916Z,7.23
2018-09-21T09:02:33.689Z,6.47
2018-09-21T09:05:06.832Z,8.83
2018-09-21T09:07:40.062Z,9.93
2018-09-21T09:10:12.930Z,12.53
2018-09-21T09:12:45.793Z,13.90
2018-09-21T09:15:20.387Z,8.63
2018-09-21T09:17:53.679Z,8.30
2018-09-21T09:20:26.347Z,7.90
2018-09-21T09:22:59.406Z,10.10
2018-09-21T09:25:32.705Z,11.17
2018-09-21T09:28:06.316Z,7.57
2018-09-21T09:30:39.174Z,7.73
2018-09-21T09:33:12.495Z,8.53
2018-09-21T09:35:45.443Z,7.97
2018-09-21T09:38:18.323Z,5.27
2018-09-21T09:40:52.858Z,9.30
2018-09-21T09:43:26.299Z,6.67
2018-09-21T09:45:59.172Z,7.20
2018-09-21T09:48:32.626Z,7.50
2018-09-21T09:51:06.228Z,10.07
2018-09-21T09:53:39.174Z,7.90
2018-09-21T09:56:11.935Z,8.43
2018-09-21T09:58:45.124Z,10.53
2018-09-21T10:01:18.109Z,7.83
2018-09-21T10:03:50.913Z,8.00
2018-09-21T10:06:24.084Z,4.47
2018-09-21T10:08:57.195Z,7.80
2018-09-21T10:11:30.014Z,10.63
2018-09-21T10:14:03.407Z,10.67
2018-09-21T10:16:36.333Z,8.47
2018-09-21T10:19:09.543Z,8.77
2018-09-21T10:21:42.402Z,5.47
2018-09-21T10:24:15.475Z,6.73
2018-09-21T10:26:48.472Z,8.97
2018-09-21T10:29:21.959Z,6.77
2018-09-21T10:31:54.527Z,7.73
2018-09-21T10:34:27.336Z,6.40
2018-09-21T10:37:00.261Z,8.07
2018-09-21T10:39:33.757Z,8.60
2018-09-21T10:42:06.523Z,19.00
2018-09-21T10:44:40.019Z,6.43
2018-09-21T10:47:12.947Z,4.83
2018-09-21T10:49:46.043Z,7.13
2018-09-21T10:52:19.780Z,8.43
2018-09-21T10:54:52.751Z,11.30
2018-09-21T10:57:25.745Z,6.67
2018-09-21T10:59:59.250Z,4.60
2018-09-21T11:02:32.687Z,2.50
2018-09-21T11:05:05.511Z,5.10
2018-09-21T11:07:38.470Z,4.73
2018-09-21T11:10:11.138Z,3.27
2018-09-21T11:12:43.891Z,3.30
2018-09-21T11:15:16.945Z,3.40
2018-09-21T11:17:49.841Z,2.57
2018-09-21T11:20:22.884Z,4.97
2018-09-21T11:22:55.920Z,3.23
2018-09-21T11:25:28.687Z,3.77
2018-09-21T11:28:02.255Z,2.77
2018-09-21T11:30:35.080Z,10.90
2018-09-21T11:33:08.134Z,5.17
2018-09-21T11:35:42.203Z,6.23
2018-09-21T11:38:15.777Z,5.23
2018-09-21T11:40:48.664Z,3.30
2018-09-21T11:43:21.635Z,5.47
2018-09-21T11:45:54.556Z,7.27
2018-09-21T11:48:28.223Z,3.80
2018-09-21T11:51:01.063Z,4.10
2018-09-21T11:53:34.271Z,5.73
2018-09-21T11:56:07.845Z,4.03
2018-09-21T11:58:40.891Z,5.43
2018-09-21T12:01:13.895Z,7.93
2018-09-21T12:03:46.824Z,11.40
2018-09-21T12:06:20.103Z,12.23
2018-09-21T12:08:53.216Z,8.93
2018-09-21T12:11:27.056Z,10.10
2018-09-21T12:14:00.074Z,9.63
2018-09-21T12:16:33.249Z,11.97
2018-09-21T12:19:07.232Z,14.47
2018-09-21T12:21:40.056Z,7.23
2018-09-21T12:24:13.507Z,16.00
2018-09-21T12:26:46.703Z,16.70
2018-09-21T12:29:20.203Z,19.43
2018-09-21T12:31:53.260Z,13.57
2018-09-21T12:34:26.535Z,39.40
2018-09-21T12:37:02.729Z,35.57
2018-09-21T12:39:40.945Z,38.07
2018-09-21T12:42:18.851Z,25.93
2018-09-21T12:44:51.808Z,22.10
2018-09-21T12:47:24.715Z,19.73
2018-09-21T12:49:58.266Z,29.57
2018-09-21T12:52:31.219Z,18.00
2018-09-21T12:55:04.195Z,15.80
2018-09-21T12:57:37.308Z,13.67
2018-09-21T13:00:11.900Z,11.03
2018-09-21T13:02:45.078Z,4.77
2018-09-21T13:05:18.113Z,10.90
2018-09-21T13:07:51.811Z,12.37
2018-09-21T13:10:24.968Z,16.20
2018-09-21T13:12:58.672Z,14.83
2018-09-21T13:15:33.321Z,14.60
2018-09-21T13:18:06.660Z,10.40
2018-09-21T13:20:39.611Z,8.13
2018-09-21T13:23:12.683Z,17.47
2018-09-21T13:25:46.060Z,18.90
2018-09-21T13:28:19.015Z,13.17
2018-09-21T13:30:51.715Z,9.17
2018-09-21T13:33:24.693Z,13.00
2018-09-21T13:35:57.712Z,8.60
2018-09-21T13:38:30.497Z,7.97
2018-09-21T13:41:03.362Z,5.57
2018-09-21T13:43:36.236Z,10.90
2018-09-21T13:46:09.329Z,11.23
2018-09-21T13:48:42.144Z,10.33
2018-09-21T13:51:15.270Z,8.43
2018-09-21T13:53:49.360Z,6.17
2018-09-21T13:56:22.253Z,8.27
2018-09-21T14:02:51.370Z,8.13
2018-09-21T14:05:24.519Z,6.87
2018-09-21T14:07:57.654Z,8.77
2018-09-21T14:10:31.009Z,5.27
2018-09-21T14:13:05.111Z,7.17
2018-09-21T14:15:38.092Z,7.33
2018-09-21T14:18:11.328Z,9.67
2018-09-21T14:20:44.589Z,7.30
2018-09-21T14:23:17.552Z,7.20
2018-09-21T14:25:50.453Z,7.57
2018-09-21T14:28:25.216Z,7.07
2018-09-21T14:30:58.329Z,4.37
2018-09-21T14:33:31.566Z,8.30
2018-09-21T14:36:04.733Z,3.57
2018-09-21T14:38:37.936Z,4.63
2018-09-21T14:41:12.258Z,2.77
2018-09-21T14:43:52.020Z,5.90
2018-09-21T14:46:25.688Z,23.50
2018-09-21T14:48:59.072Z,5.50
2018-09-21T14:52:12.822Z,13.43
2018-09-21T14:54:46.087Z,10.28
2018-09-21T14:57:19.754Z,4.35
2018-09-21T14:59:53.019Z,5.50
2018-09-21T15:02:26.308Z,7.17
2018-09-21T15:05:01.674Z,7.03
2018-09-21T15:07:37.610Z,11.80
2018-09-21T15:10:13.357Z,4.90
2018-09-21T15:12:48.012Z,3.72
2018-09-21T15:15:21.121Z,5.28
2018-09-21T15:18:01.012Z,3.67
2018-09-21T15:20:41.398Z,5.50
2018-09-21T15:23:20.225Z,6.30
2018-09-21T15:25:57.973Z,8.95
2018-09-21T15:28:35.184Z,3.37
2018-09-21T15:31:13.343Z,4.72
2018-09-21T15:33:52.831Z,6.03
2018-09-21T15:36:35.328Z,3.00
2018-09-21T15:39:12.817Z,6.55
2018-09-21T15:42:32.443Z,3.58
2018-09-21T15:45:11.024Z,6.00
2018-09-21T15:47:50.866Z,6.28
2018-09-21T15:50:27.548Z,8.68
2018-09-21T15:53:00.734Z,8.95
2018-09-21T15:55:37.462Z,3.35
2018-09-21T15:58:14.219Z,5.95
2018-09-21T16:00:49.868Z,5.60
2018-09-21T16:03:25.963Z,5.15
2018-09-21T16:06:02.950Z,3.12
2018-09-21T16:08:41.081Z,1.52
2018-09-21T16:11:16.366Z,1.95
2018-09-21T16:13:54.844Z,2.83
2018-09-21T16:16:30.397Z,6.87
2018-09-21T16:19:06.116Z,8.18
2018-09-21T16:21:43.571Z,8.05
2018-09-21T16:24:23.473Z,6.03
2018-09-21T16:27:02.155Z,4.12
2018-09-21T16:29:40.043Z,5.37
2018-09-21T16:32:17.191Z,2.00
2018-09-21T16:34:50.225Z,3.12
2018-09-21T16:40:06.064Z,4.37
2018-09-21T16:46:00.647Z,2.92
2018-09-21T16:48:39.319Z,5.25
2018-09-21T16:51:16.166Z,6.85
2018-09-21T16:53:52.298Z,4.50
2018-09-21T16:56:32.763Z,2.65
2018-09-21T16:59:11.449Z,5.55
2018-09-21T17:01:50.352Z,5.08
2018-09-21T17:04:24.885Z,4.45
2018-09-21T17:07:01.203Z,2.80
2018-09-21T17:09:36.973Z,4.87
2018-09-21T17:12:14.049Z,4.20
2018-09-21T17:18:23.078Z,3.90
2018-09-21T17:20:59.253Z,4.87
2018-09-21T17:23:36.282Z,4.33
2018-09-21T17:26:12.065Z,6.35
2018-09-21T17:28:49.405Z,5.08
2018-09-21T17:31:25.280Z,5.53
2018-09-21T17:34:04.645Z,4.22
2018-09-21T17:36:39.333Z,3.40
2018-09-21T17:39:17.114Z,9.58
2018-09-21T17:41:53.323Z,4.85
2018-09-21T17:44:29.965Z,4.17
2018-09-21T17:47:09.538Z,7.53
2018-09-21T17:49:45.695Z,7.67
2018-09-21T17:52:25.068Z,4.87
2018-09-21T17:55:05.599Z,4.28
2018-09-21T17:57:42.242Z,5.45
2018-09-21T18:00:15.467Z,4.67
2018-09-21T18:02:52.634Z,7.15
2018-09-21T18:05:35.035Z,9.23
2018-09-21T18:08:11.670Z,12.68
2018-09-21T18:10:45.561Z,8.15
2018-09-21T18:13:19.229Z,8.93
2018-09-21T18:15:52.603Z,9.08
2018-09-21T18:18:27.526Z,1.98
2018-09-21T18:21:01.103Z,3.25
2018-09-21T18:23:34.614Z,8.08
2018-09-21T18:26:09.733Z,6.25
2018-09-21T18:28:57.885Z,9.80
2018-09-21T18:31:31.724Z,5.87
2018-09-21T18:34:19.837Z,9.18
2018-09-21T18:37:06.497Z,4.35
2018-09-21T18:39:59.568Z,4.65
2018-09-21T18:42:49.427Z,7.67
2018-09-21T18:45:44.790Z,10.55
2018-09-21T18:48:39.986Z,8.13
2018-09-21T18:51:28.225Z,7.90
2018-09-21T18:54:23.878Z,7.03
2018-09-21T18:57:17.954Z,7.35
2018-09-21T19:00:11.569Z,6.67
2018-09-21T19:06:06.129Z,5.53
2018-09-21T19:09:00.320Z,5.12
2018-09-21T19:11:54.854Z,6.95
2018-09-21T19:14:47.403Z,3.22
2018-09-21T19:17:44.059Z,6.28
2018-09-21T19:20:22.976Z,10.82
2018-09-21T19:23:02.050Z,6.15
2018-09-21T19:25:34.523Z,8.23
2018-09-21T19:28:07.010Z,5.67
2018-09-21T19:30:40.700Z,11.35
2018-09-21T19:33:15.220Z,8.38
2018-09-21T19:35:47.805Z,3.20
2018-09-21T19:38:19.997Z,8.78
2018-09-21T19:40:52.492Z,4.62
2018-09-21T19:43:24.755Z,6.35
2018-09-21T19:45:57.645Z,8.13
2018-09-21T19:48:29.887Z,4.15
2018-09-21T19:51:02.401Z,5.47
2018-09-21T19:53:34.696Z,5.47
2018-09-21T19:56:08.557Z,7.12
2018-09-21T19:58:40.991Z,7.80
2018-09-21T20:01:14.566Z,3.58
2018-09-21T20:03:46.814Z,8.63
2018-09-21T20:06:19.429Z,5.10
2018-09-21T20:08:51.648Z,6.80
2018-09-21T20:11:24.670Z,6.42
2018-09-21T20:13:58.420Z,6.47
2018-09-21T20:16:30.843Z,1.82
2018-09-21T20:19:03.172Z,4.35
2018-09-21T20:21:36.225Z,10.50
2018-09-21T20:24:09.801Z,7.78
2018-09-21T20:26:42.884Z,6.70
2018-09-21T20:29:17.551Z,8.58
2018-09-21T20:31:54.766Z,3.98
2018-09-21T20:34:27.040Z,6.77
2018-09-21T20:37:00.000Z,6.40
2018-09-21T20:39:32.221Z,8.40
2018-09-21T20:45:26.105Z,5.70
2018-09-21T20:47:58.624Z,5.58
2018-09-21T20:50:31.410Z,4.80
2018-09-21T20:53:04.201Z,7.72
2018-09-21T20:55:36.919Z,5.10
2018-09-21T20:58:09.652Z,9.13
2018-09-21T21:00:41.913Z,8.98
2018-09-21T21:03:15.665Z,5.35
2018-09-21T21:05:48.330Z,3.20
2018-09-21T21:08:21.631Z,5.67
2018-09-21T21:10:54.669Z,3.77
2018-09-21T21:13:29.801Z,3.62
2018-09-21T21:16:02.954Z,5.20
2018-09-21T21:18:35.808Z,4.87
2018-09-21T21:21:17.233Z,3.77
2018-09-21T21:23:54.180Z,4.53
2018-09-21T21:26:30.738Z,6.10
2018-09-21T21:29:12.914Z,5.57
2018-09-21T21:32:02.824Z,4.03
2018-09-21T21:34:35.698Z,7.93
2018-09-21T21:37:10.833Z,6.60
2018-09-21T21:39:43.006Z,4.10
2018-09-21T21:42:15.525Z,5.33
2018-09-21T21:44:48.551Z,7.43
2018-09-21T21:47:23.472Z,5.27
2018-09-21T21:49:56.691Z,4.28
2018-09-21T21:52:29.446Z,10.85
2018-09-21T21:55:04.569Z,6.12
2018-09-21T21:57:38.725Z,5.17
2018-09-21T22:00:12.525Z,2.98
2018-09-21T22:02:44.787Z,4.50
2018-09-21T22:05:18.263Z,4.20
2018-09-21T22:07:51.239Z,6.42
2018-09-21T22:10:23.935Z,6.95
2018-09-21T22:13:00.981Z,7.05
2018-09-21T22:15:33.791Z,5.70
2018-09-21T22:18:06.532Z,5.08
2018-09-21T22:20:39.142Z,6.37
2018-09-21T22:23:12.009Z,2.92
2018-09-21T22:25:44.507Z,3.02
2018-09-21T22:28:18.220Z,4.10
2018-09-21T22:30:52.214Z,3.33
2018-09-21T22:33:25.986Z,4.72
2018-09-21T22:35:59.214Z,5.50
2018-09-21T22:38:35.088Z,8.63
2018-09-21T22:41:16.138Z,8.73
2018-09-21T22:43:48.514Z,5.03
2018-09-21T22:46:20.901Z,6.20
2018-09-21T22:48:54.321Z,7.33
2018-09-21T22:51:27.355Z,4.40
2018-09-21T22:54:00.091Z,4.27
2018-09-21T22:56:33.443Z,5.57
2018-09-21T22:59:06.122Z,10.47
2018-09-21T23:01:38.910Z,7.17
2018-09-21T23:04:11.110Z,8.60
2018-09-21T23:06:43.569Z,7.33
2018-09-21T23:09:16.120Z,7.63
2018-09-21T23:11:49.299Z,5.63
2018-09-21T23:14:22.064Z,4.47
2018-09-21T23:16:55.266Z,6.30
2018-09-21T23:19:27.978Z,9.83
2018-09-21T23:22:00.647Z,12.60
2018-09-21T23:24:33.708Z,13.57
2018-09-21T23:27:06.334Z,5.20
2018-09-21T23:29:39.613Z,11.17
2018-09-21T23:32:12.354Z,11.57
2018-09-21T23:34:45.212Z,8.70
2018-09-21T23:37:17.842Z,7.57
2018-09-21T23:39:51.233Z,5.23
2018-09-21T23:42:24.020Z,4.87
2018-09-21T23:44:56.736Z,6.07
2018-09-21T23:47:29.690Z,7.63
2018-09-21T23:50:02.285Z,8.73
2018-09-21T23:52:35.480Z,8.37
2018-09-21T23:55:08.627Z,7.23
2018-09-21T23:57:41.366Z,10.03
